KDAA

Davison AAF Airport

Fort Belvoir, Virginia, USA
TAF KDAA 260900Z 2609/2715 31010KT 9999 FEW230 QNH2974INS BECMG 2611/2612 30014KT 9999 SKC QNH2980INS BECMG 2620/2621 VRB06KT 9999 SCT150 QNH2983INS BECMG 2702/2703 VRB06KT 9999 SCT020 BKN130 QNH2979INS BECMG 2707/2708 11006KT 9000 -RA BKN020 OVC040 QNH2976INS BECMG 2709/2710 11006KT 8000 -RA BKN010 OVC030 QNH2971INS BECMG 2714/2715 18012KT 9000 -RA BKN015 OVC030 QNH2969INS TX19/2618Z TN09/2612Z
Issued Valid From Valid To
Apr-26 @ 09:00 UTC
(5 hours ago)
Apr-26 @ 09:00 UTC
(5 hours ago)
Apr-27 @ 15:00 UTC
(-1 days ago)
Expired Click to View Apr-26 @ 09:00 to Apr-26 @ 11:00
TAF KDAA 260900Z 2609/2715 31010KT 9999 FEW230 QNH2974INS
Wind Visibility Clouds Readings
310° at 10 knots Greater than 6 miles
  • Few at 23,000' AGL
Altimeter 29.73" Hg
Pressure 1007 hPa
Becoming Apr-26 @ 11:00 to Apr-26 @ 20:00
BECMG 2611/2612 30014KT 9999 SKC QNH2980INS
Wind Visibility Clouds Readings
300° at 14 knots Greater than 6 miles
  • Clear skies
Altimeter 29.79" Hg
Pressure 1009 hPa
Becoming Apr-26 @ 20:00 to Apr-27 @ 02:00
BECMG 2620/2621 VRB06KT 9999 SCT150 QNH2983INS
Wind Visibility Clouds Readings
Variable at 6 knots Greater than 6 miles
  • Scattered at 15,000' AGL
Altimeter 29.82" Hg
Pressure 1010 hPa
Becoming Apr-27 @ 02:00 to Apr-27 @ 07:00
BECMG 2702/2703 VRB06KT 9999 SCT020 BKN130 QNH2979INS
Wind Visibility Clouds Readings
Variable at 6 knots Greater than 6 miles
  • Scattered at 2,000' AGL
  • Broken at 13,000' AGL
Altimeter 29.79" Hg
Pressure 1009 hPa
Becoming Apr-27 @ 07:00 to Apr-27 @ 09:00
BECMG 2707/2708 11006KT 9000 -RA BKN020 OVC040 QNH2976INS
Wind Visibility Clouds Conditions Readings
110° at 6 knots 51/59 miles
  • Broken at 2,000' AGL
  • Overcast at 4,000' AGL
  • Light Rain
Altimeter 29.76" Hg
Pressure 1008 hPa
Becoming Apr-27 @ 09:00 to Apr-27 @ 14:00
BECMG 2709/2710 11006KT 8000 -RA BKN010 OVC030 QNH2971INS
Wind Visibility Clouds Conditions Readings
110° at 6 knots 41/97 miles
  • Broken at 1,000' AGL
  • Overcast at 3,000' AGL
  • Light Rain
Altimeter 29.7" Hg
Pressure 1006 hPa
Becoming Apr-27 @ 14:00 to Apr-27 @ 15:00
BECMG 2714/2715 18012KT 9000 -RA BKN015 OVC030 QNH2969INS TX19/2618Z TN09/2612Z
Wind Visibility Clouds Conditions Readings
180° at 12 knots 51/59 miles
  • Broken at 1,500' AGL
  • Overcast at 3,000' AGL
  • Light Rain
Altimeter 29.7" Hg
Pressure 1006 hPa
TAF KDAA 260900Z 2609/2715 31010KT 9999 FEW230 QNH2974INS BECMG 2611/2612 30014KT 9999 SKC QNH2980INS BECMG 2620/2621 VRB06KT 9999 SCT150 QNH2983INS BECMG 2702/2703 VRB06KT 9999 SCT020 BKN130 QNH2979INS BECMG 2707/2708 11006KT 9000 -RA BKN020 OVC040 QNH2976INS BECMG 2709/2710 11006KT 8000 -RA BKN010 OVC030 QNH2971INS BECMG 2714/2715 18012KT 9000 -RA BKN015 OVC030 QNH2969INS TX19/2618Z TN09/2612Z
Issued Apr-26 @ 09:00 UTC
(5 hours ago)
Valid From Apr-26 @ 09:00 UTC
(5 hours ago)
Valid To Apr-27 @ 15:00 UTC
(-1 days ago)
Apr-26 @ 09:00 - Apr-26 @ 11:00
Wind Visibility
310° at 10 knots Greater than 6 miles
Clouds
  • Few at 23,000' AGL
Becoming Apr-26 @ 11:00 - Apr-26 @ 20:00
Wind Visibility
300° at 14 knots Greater than 6 miles
Clouds
  • Clear skies
Becoming Apr-26 @ 20:00 - Apr-27 @ 02:00
Wind Visibility
Variable at 6 knots Greater than 6 miles
Clouds
  • Scattered at 15,000' AGL
Becoming Apr-27 @ 02:00 - Apr-27 @ 07:00
Wind Visibility
Variable at 6 knots Greater than 6 miles
Clouds
  • Scattered at 2,000' AGL
  • Broken at 13,000' AGL
Becoming Apr-27 @ 07:00 - Apr-27 @ 09:00
Wind Visibility
110° at 6 knots 51/59 miles
Clouds
  • Broken at 2,000' AGL
  • Overcast at 4,000' AGL
Conditions
  • Light Rain
Becoming Apr-27 @ 09:00 - Apr-27 @ 14:00
Wind Visibility
110° at 6 knots 41/97 miles
Clouds
  • Broken at 1,000' AGL
  • Overcast at 3,000' AGL
Conditions
  • Light Rain
Becoming Apr-27 @ 14:00 - Apr-27 @ 15:00
Wind Visibility
180° at 12 knots 51/59 miles
Clouds
  • Broken at 1,500' AGL
  • Overcast at 3,000' AGL
Conditions
  • Light Rain